sensor_id;sensor_type;location;lat;lon;timestamp;P1;durP1;ratioP1;P2;durP2;ratioP2
11283;SDS011;5698;47.332;11.180;2023-06-10T00:01:16;3.63;;;3.33;;
11283;SDS011;5698;47.332;11.180;2023-06-10T00:03:43;4.27;;;3.93;;
11283;SDS011;5698;47.332;11.180;2023-06-10T00:06:10;4.80;;;4.30;;
11283;SDS011;5698;47.332;11.180;2023-06-10T00:08:37;4.53;;;4.13;;
11283;SDS011;5698;47.332;11.180;2023-06-10T00:11:05;4.60;;;4.20;;
11283;SDS011;5698;47.332;11.180;2023-06-10T00:13:32;3.97;;;3.67;;
11283;SDS011;5698;47.332;11.180;2023-06-10T00:16:00;5.33;;;4.33;;
11283;SDS011;5698;47.332;11.180;2023-06-10T00:18:27;4.40;;;4.00;;
11283;SDS011;5698;47.332;11.180;2023-06-10T00:20:56;5.47;;;4.23;;
11283;SDS011;5698;47.332;11.180;2023-06-10T00:23:29;4.67;;;4.27;;
11283;SDS011;5698;47.332;11.180;2023-06-10T00:25:57;5.17;;;4.73;;
11283;SDS011;5698;47.332;11.180;2023-06-10T00:28:25;4.63;;;4.23;;
11283;SDS011;5698;47.332;11.180;2023-06-10T00:30:52;4.87;;;4.47;;
11283;SDS011;5698;47.332;11.180;2023-06-10T00:33:20;4.20;;;3.80;;
11283;SDS011;5698;47.332;11.180;2023-06-10T00:35:47;4.20;;;3.87;;
11283;SDS011;5698;47.332;11.180;2023-06-10T00:38:14;4.53;;;4.13;;
11283;SDS011;5698;47.332;11.180;2023-06-10T00:40:41;4.23;;;3.83;;
11283;SDS011;5698;47.332;11.180;2023-06-10T00:43:08;4.47;;;4.07;;
11283;SDS011;5698;47.332;11.180;2023-06-10T00:45:35;4.20;;;3.63;;
11283;SDS011;5698;47.332;11.180;2023-06-10T00:48:02;4.83;;;4.33;;
11283;SDS011;5698;47.332;11.180;2023-06-10T00:50:31;4.77;;;4.37;;
11283;SDS011;5698;47.332;11.180;2023-06-10T00:52:59;4.70;;;3.87;;
11283;SDS011;5698;47.332;11.180;2023-06-10T00:55:28;4.50;;;4.10;;
11283;SDS011;5698;47.332;11.180;2023-06-10T00:57:54;3.90;;;3.60;;
11283;SDS011;5698;47.332;11.180;2023-06-10T01:00:21;4.37;;;3.67;;
11283;SDS011;5698;47.332;11.180;2023-06-10T01:02:48;5.10;;;4.20;;
11283;SDS011;5698;47.332;11.180;2023-06-10T01:05:17;4.67;;;4.27;;
11283;SDS011;5698;47.332;11.180;2023-06-10T01:07:48;4.03;;;3.63;;
11283;SDS011;5698;47.332;11.180;2023-06-10T01:10:24;5.63;;;4.00;;
11283;SDS011;5698;47.332;11.180;2023-06-10T01:12:56;4.27;;;3.97;;
11283;SDS011;5698;47.332;11.180;2023-06-10T01:15:28;4.57;;;4.00;;
11283;SDS011;5698;47.332;11.180;2023-06-10T01:17:56;4.50;;;4.10;;
11283;SDS011;5698;47.332;11.180;2023-06-10T01:20:24;4.43;;;3.93;;
11283;SDS011;5698;47.332;11.180;2023-06-10T01:22:55;4.43;;;4.00;;
11283;SDS011;5698;47.332;11.180;2023-06-10T01:25:23;4.93;;;4.43;;
11283;SDS011;5698;47.332;11.180;2023-06-10T01:27:54;4.53;;;4.20;;
11283;SDS011;5698;47.332;11.180;2023-06-10T01:30:29;6.60;;;4.70;;
11283;SDS011;5698;47.332;11.180;2023-06-10T01:33:02;4.30;;;4.00;;
11283;SDS011;5698;47.332;11.180;2023-06-10T01:35:35;4.80;;;4.23;;
11283;SDS011;5698;47.332;11.180;2023-06-10T01:38:05;4.70;;;4.30;;
11283;SDS011;5698;47.332;11.180;2023-06-10T01:40:33;4.60;;;4.27;;
11283;SDS011;5698;47.332;11.180;2023-06-10T01:43:01;4.93;;;4.53;;
11283;SDS011;5698;47.332;11.180;2023-06-10T01:45:28;4.83;;;4.30;;
11283;SDS011;5698;47.332;11.180;2023-06-10T01:47:55;4.67;;;4.30;;
11283;SDS011;5698;47.332;11.180;2023-06-10T01:50:25;5.10;;;4.70;;
11283;SDS011;5698;47.332;11.180;2023-06-10T01:52:52;5.43;;;4.13;;
11283;SDS011;5698;47.332;11.180;2023-06-10T01:55:20;5.90;;;5.37;;
11283;SDS011;5698;47.332;11.180;2023-06-10T01:57:47;5.10;;;4.40;;
11283;SDS011;5698;47.332;11.180;2023-06-10T02:00:15;4.13;;;3.83;;
11283;SDS011;5698;47.332;11.180;2023-06-10T02:02:42;4.13;;;3.73;;
11283;SDS011;5698;47.332;11.180;2023-06-10T02:05:09;4.67;;;4.03;;
11283;SDS011;5698;47.332;11.180;2023-06-10T02:07:36;5.10;;;4.60;;
11283;SDS011;5698;47.332;11.180;2023-06-10T02:10:04;5.43;;;4.00;;
11283;SDS011;5698;47.332;11.180;2023-06-10T02:12:33;5.37;;;4.87;;
11283;SDS011;5698;47.332;11.180;2023-06-10T02:15:00;5.10;;;4.70;;
11283;SDS011;5698;47.332;11.180;2023-06-10T02:17:27;5.07;;;4.57;;
11283;SDS011;5698;47.332;11.180;2023-06-10T02:19:56;4.03;;;3.73;;
11283;SDS011;5698;47.332;11.180;2023-06-10T02:22:24;4.70;;;4.30;;
11283;SDS011;5698;47.332;11.180;2023-06-10T02:24:52;4.60;;;4.17;;
11283;SDS011;5698;47.332;11.180;2023-06-10T02:27:19;4.67;;;4.27;;
11283;SDS011;5698;47.332;11.180;2023-06-10T02:29:48;4.50;;;4.10;;
11283;SDS011;5698;47.332;11.180;2023-06-10T02:32:15;4.90;;;4.40;;
11283;SDS011;5698;47.332;11.180;2023-06-10T02:34:42;4.93;;;4.50;;
11283;SDS011;5698;47.332;11.180;2023-06-10T02:37:09;4.97;;;4.57;;
11283;SDS011;5698;47.332;11.180;2023-06-10T02:39:36;4.97;;;4.47;;
11283;SDS011;5698;47.332;11.180;2023-06-10T02:42:03;4.97;;;4.57;;
11283;SDS011;5698;47.332;11.180;2023-06-10T02:44:30;5.43;;;4.80;;
11283;SDS011;5698;47.332;11.180;2023-06-10T02:46:59;5.43;;;4.87;;
11283;SDS011;5698;47.332;11.180;2023-06-10T02:49:26;5.53;;;5.00;;
11283;SDS011;5698;47.332;11.180;2023-06-10T02:51:53;5.30;;;4.80;;
11283;SDS011;5698;47.332;11.180;2023-06-10T02:54:21;5.20;;;4.80;;
11283;SDS011;5698;47.332;11.180;2023-06-10T02:56:49;5.50;;;5.00;;
11283;SDS011;5698;47.332;11.180;2023-06-10T02:59:17;5.10;;;4.70;;
11283;SDS011;5698;47.332;11.180;2023-06-10T03:01:44;5.33;;;4.83;;
11283;SDS011;5698;47.332;11.180;2023-06-10T03:04:13;5.43;;;4.93;;
11283;SDS011;5698;47.332;11.180;2023-06-10T03:06:40;5.40;;;4.90;;
11283;SDS011;5698;47.332;11.180;2023-06-10T03:09:07;6.70;;;5.53;;
11283;SDS011;5698;47.332;11.180;2023-06-10T03:11:34;5.80;;;5.30;;
11283;SDS011;5698;47.332;11.180;2023-06-10T03:14:02;5.97;;;5.37;;
11283;SDS011;5698;47.332;11.180;2023-06-10T03:16:29;5.80;;;4.83;;
11283;SDS011;5698;47.332;11.180;2023-06-10T03:18:56;5.33;;;4.93;;
11283;SDS011;5698;47.332;11.180;2023-06-10T03:21:24;5.70;;;5.20;;
11283;SDS011;5698;47.332;11.180;2023-06-10T03:23:52;5.03;;;4.53;;
11283;SDS011;5698;47.332;11.180;2023-06-10T03:26:19;5.47;;;5.03;;
11283;SDS011;5698;47.332;11.180;2023-06-10T03:28:46;5.40;;;4.90;;
11283;SDS011;5698;47.332;11.180;2023-06-10T03:31:13;5.30;;;4.80;;
11283;SDS011;5698;47.332;11.180;2023-06-10T03:33:42;4.90;;;4.50;;
11283;SDS011;5698;47.332;11.180;2023-06-10T03:36:09;5.43;;;4.93;;
11283;SDS011;5698;47.332;11.180;2023-06-10T03:38:37;5.93;;;4.77;;
11283;SDS011;5698;47.332;11.180;2023-06-10T03:41:04;5.43;;;4.87;;
11283;SDS011;5698;47.332;11.180;2023-06-10T03:43:31;5.90;;;5.40;;
11283;SDS011;5698;47.332;11.180;2023-06-10T03:45:58;5.50;;;5.00;;
11283;SDS011;5698;47.332;11.180;2023-06-10T03:48:25;5.97;;;4.90;;
11283;SDS011;5698;47.332;11.180;2023-06-10T03:50:52;4.77;;;4.37;;
11283;SDS011;5698;47.332;11.180;2023-06-10T03:53:19;5.00;;;4.60;;
11283;SDS011;5698;47.332;11.180;2023-06-10T03:55:48;4.70;;;4.27;;
11283;SDS011;5698;47.332;11.180;2023-06-10T03:58:15;5.03;;;4.63;;
11283;SDS011;5698;47.332;11.180;2023-06-10T04:00:43;5.43;;;4.93;;
11283;SDS011;5698;47.332;11.180;2023-06-10T04:03:10;4.50;;;4.10;;
11283;SDS011;5698;47.332;11.180;2023-06-10T04:05:39;5.30;;;4.83;;
11283;SDS011;5698;47.332;11.180;2023-06-10T04:08:07;4.70;;;4.27;;
11283;SDS011;5698;47.332;11.180;2023-06-10T04:10:34;5.23;;;4.80;;
11283;SDS011;5698;47.332;11.180;2023-06-10T04:13:03;5.30;;;4.33;;
11283;SDS011;5698;47.332;11.180;2023-06-10T04:15:30;5.60;;;4.53;;
11283;SDS011;5698;47.332;11.180;2023-06-10T04:17:58;4.50;;;4.10;;
11283;SDS011;5698;47.332;11.180;2023-06-10T04:20:26;4.87;;;4.47;;
11283;SDS011;5698;47.332;11.180;2023-06-10T04:22:53;4.93;;;4.53;;
11283;SDS011;5698;47.332;11.180;2023-06-10T04:25:20;5.13;;;4.63;;
11283;SDS011;5698;47.332;11.180;2023-06-10T04:27:48;5.13;;;4.63;;
11283;SDS011;5698;47.332;11.180;2023-06-10T04:30:16;5.97;;;5.40;;
11283;SDS011;5698;47.332;11.180;2023-06-10T04:32:43;5.53;;;4.83;;
11283;SDS011;5698;47.332;11.180;2023-06-10T04:35:12;4.83;;;4.33;;
11283;SDS011;5698;47.332;11.180;2023-06-10T04:37:40;5.47;;;4.73;;
11283;SDS011;5698;47.332;11.180;2023-06-10T04:40:07;5.03;;;4.63;;
11283;SDS011;5698;47.332;11.180;2023-06-10T04:42:35;5.73;;;4.70;;
11283;SDS011;5698;47.332;11.180;2023-06-10T04:45:03;5.27;;;4.87;;
11283;SDS011;5698;47.332;11.180;2023-06-10T04:47:32;5.30;;;4.90;;
11283;SDS011;5698;47.332;11.180;2023-06-10T04:49:59;5.00;;;4.60;;
11283;SDS011;5698;47.332;11.180;2023-06-10T04:52:26;5.37;;;4.70;;
11283;SDS011;5698;47.332;11.180;2023-06-10T04:54:53;5.40;;;4.90;;
11283;SDS011;5698;47.332;11.180;2023-06-10T04:57:20;4.87;;;4.40;;
11283;SDS011;5698;47.332;11.180;2023-06-10T04:59:47;5.03;;;4.63;;
11283;SDS011;5698;47.332;11.180;2023-06-10T05:02:14;4.77;;;4.37;;
11283;SDS011;5698;47.332;11.180;2023-06-10T05:04:42;4.97;;;4.53;;
11283;SDS011;5698;47.332;11.180;2023-06-10T05:07:09;5.17;;;4.70;;
11283;SDS011;5698;47.332;11.180;2023-06-10T05:09:36;5.50;;;5.10;;
11283;SDS011;5698;47.332;11.180;2023-06-10T05:12:04;5.07;;;4.57;;
11283;SDS011;5698;47.332;11.180;2023-06-10T05:14:31;5.10;;;4.60;;
11283;SDS011;5698;47.332;11.180;2023-06-10T05:16:58;6.07;;;4.63;;
11283;SDS011;5698;47.332;11.180;2023-06-10T05:19:25;5.07;;;4.57;;
11283;SDS011;5698;47.332;11.180;2023-06-10T05:21:54;4.90;;;4.47;;
11283;SDS011;5698;47.332;11.180;2023-06-10T05:24:21;4.93;;;4.53;;
11283;SDS011;5698;47.332;11.180;2023-06-10T05:26:48;5.13;;;4.73;;
11283;SDS011;5698;47.332;11.180;2023-06-10T05:29:15;5.13;;;4.20;;
11283;SDS011;5698;47.332;11.180;2023-06-10T05:31:42;4.67;;;4.17;;
11283;SDS011;5698;47.332;11.180;2023-06-10T05:34:09;4.30;;;3.97;;
11283;SDS011;5698;47.332;11.180;2023-06-10T05:36:36;5.47;;;4.80;;
11283;SDS011;5698;47.332;11.180;2023-06-10T05:39:04;4.70;;;4.30;;
11283;SDS011;5698;47.332;11.180;2023-06-10T05:41:31;5.43;;;4.93;;
11283;SDS011;5698;47.332;11.180;2023-06-10T05:43:58;4.97;;;4.57;;
11283;SDS011;5698;47.332;11.180;2023-06-10T05:46:25;5.27;;;4.77;;
11283;SDS011;5698;47.332;11.180;2023-06-10T05:48:52;5.67;;;4.70;;
11283;SDS011;5698;47.332;11.180;2023-06-10T05:51:19;6.37;;;5.77;;
11283;SDS011;5698;47.332;11.180;2023-06-10T05:53:46;7.07;;;5.47;;
11283;SDS011;5698;47.332;11.180;2023-06-10T05:56:15;6.60;;;5.03;;
11283;SDS011;5698;47.332;11.180;2023-06-10T05:58:42;5.13;;;4.63;;
11283;SDS011;5698;47.332;11.180;2023-06-10T06:01:09;4.80;;;4.40;;
11283;SDS011;5698;47.332;11.180;2023-06-10T06:03:35;7.67;;;4.57;;
11283;SDS011;5698;47.332;11.180;2023-06-10T06:06:03;4.60;;;4.20;;
11283;SDS011;5698;47.332;11.180;2023-06-10T06:08:30;5.10;;;4.60;;
11283;SDS011;5698;47.332;11.180;2023-06-10T06:10:57;5.17;;;4.70;;
11283;SDS011;5698;47.332;11.180;2023-06-10T06:13:26;4.83;;;4.23;;
11283;SDS011;5698;47.332;11.180;2023-06-10T06:15:53;5.10;;;4.60;;
11283;SDS011;5698;47.332;11.180;2023-06-10T06:18:20;4.97;;;4.57;;
11283;SDS011;5698;47.332;11.180;2023-06-10T06:20:47;5.20;;;4.70;;
11283;SDS011;5698;47.332;11.180;2023-06-10T06:23:14;5.10;;;4.70;;
11283;SDS011;5698;47.332;11.180;2023-06-10T06:25:41;5.10;;;4.60;;
11283;SDS011;5698;47.332;11.180;2023-06-10T06:28:10;4.77;;;4.37;;
11283;SDS011;5698;47.332;11.180;2023-06-10T06:30:38;6.60;;;4.20;;
11283;SDS011;5698;47.332;11.180;2023-06-10T06:33:05;4.80;;;4.40;;
11283;SDS011;5698;47.332;11.180;2023-06-10T06:35:32;4.80;;;4.30;;
11283;SDS011;5698;47.332;11.180;2023-06-10T06:37:59;5.00;;;4.50;;
11283;SDS011;5698;47.332;11.180;2023-06-10T06:40:26;4.70;;;4.30;;
11283;SDS011;5698;47.332;11.180;2023-06-10T06:42:53;5.30;;;4.80;;
11283;SDS011;5698;47.332;11.180;2023-06-10T06:45:20;4.90;;;4.33;;
11283;SDS011;5698;47.332;11.180;2023-06-10T06:47:49;4.50;;;4.10;;
11283;SDS011;5698;47.332;11.180;2023-06-10T06:50:16;5.47;;;4.10;;
11283;SDS011;5698;47.332;11.180;2023-06-10T06:52:43;5.57;;;4.07;;
11283;SDS011;5698;47.332;11.180;2023-06-10T06:55:10;5.53;;;4.20;;
11283;SDS011;5698;47.332;11.180;2023-06-10T06:57:37;4.43;;;4.07;;
11283;SDS011;5698;47.332;11.180;2023-06-10T07:00:05;5.10;;;4.67;;
11283;SDS011;5698;47.332;11.180;2023-06-10T07:02:34;5.60;;;4.10;;
11283;SDS011;5698;47.332;11.180;2023-06-10T07:05:02;4.73;;;4.17;;
11283;SDS011;5698;47.332;11.180;2023-06-10T07:07:30;4.53;;;3.90;;
11283;SDS011;5698;47.332;11.180;2023-06-10T07:09:57;5.03;;;4.40;;
11283;SDS011;5698;47.332;11.180;2023-06-10T07:12:24;4.50;;;4.10;;
11283;SDS011;5698;47.332;11.180;2023-06-10T07:14:51;5.67;;;4.60;;
11283;SDS011;5698;47.332;11.180;2023-06-10T07:17:18;4.80;;;4.30;;
11283;SDS011;5698;47.332;11.180;2023-06-10T07:19:45;4.47;;;4.17;;
11283;SDS011;5698;47.332;11.180;2023-06-10T07:22:14;4.73;;;4.33;;
11283;SDS011;5698;47.332;11.180;2023-06-10T07:24:41;4.13;;;3.73;;
11283;SDS011;5698;47.332;11.180;2023-06-10T07:27:09;4.70;;;4.10;;
11283;SDS011;5698;47.332;11.180;2023-06-10T07:29:36;6.40;;;4.13;;
11283;SDS011;5698;47.332;11.180;2023-06-10T07:32:03;4.20;;;3.80;;
11283;SDS011;5698;47.332;11.180;2023-06-10T07:34:31;4.13;;;3.70;;
11283;SDS011;5698;47.332;11.180;2023-06-10T07:36:58;4.00;;;3.53;;
11283;SDS011;5698;47.332;11.180;2023-06-10T07:39:26;4.10;;;3.73;;
11283;SDS011;5698;47.332;11.180;2023-06-10T07:41:53;3.90;;;3.60;;
11283;SDS011;5698;47.332;11.180;2023-06-10T07:44:22;6.10;;;4.40;;
11283;SDS011;5698;47.332;11.180;2023-06-10T07:46:49;7.33;;;4.23;;
11283;SDS011;5698;47.332;11.180;2023-06-10T07:49:16;4.50;;;3.90;;
11283;SDS011;5698;47.332;11.180;2023-06-10T07:51:43;4.20;;;3.80;;
11283;SDS011;5698;47.332;11.180;2023-06-10T07:54:10;4.33;;;3.80;;
11283;SDS011;5698;47.332;11.180;2023-06-10T07:56:39;4.40;;;3.97;;
11283;SDS011;5698;47.332;11.180;2023-06-10T07:59:06;3.83;;;3.53;;
11283;SDS011;5698;47.332;11.180;2023-06-10T08:01:33;4.37;;;4.00;;
11283;SDS011;5698;47.332;11.180;2023-06-10T08:04:03;3.57;;;3.27;;
11283;SDS011;5698;47.332;11.180;2023-06-10T08:06:30;4.10;;;3.70;;
11283;SDS011;5698;47.332;11.180;2023-06-10T08:08:57;3.73;;;3.37;;
11283;SDS011;5698;47.332;11.180;2023-06-10T08:11:25;3.60;;;3.30;;
11283;SDS011;5698;47.332;11.180;2023-06-10T08:13:54;3.70;;;3.40;;
11283;SDS011;5698;47.332;11.180;2023-06-10T08:16:21;7.23;;;3.63;;
11283;SDS011;5698;47.332;11.180;2023-06-10T08:18:48;4.17;;;3.67;;
11283;SDS011;5698;47.332;11.180;2023-06-10T08:21:16;3.80;;;3.40;;
11283;SDS011;5698;47.332;11.180;2023-06-10T08:23:43;4.10;;;3.80;;
11283;SDS011;5698;47.332;11.180;2023-06-10T08:26:10;3.70;;;3.37;;
11283;SDS011;5698;47.332;11.180;2023-06-10T08:28:37;3.83;;;3.53;;
11283;SDS011;5698;47.332;11.180;2023-06-10T08:31:06;4.73;;;3.50;;
11283;SDS011;5698;47.332;11.180;2023-06-10T08:33:33;5.63;;;3.90;;
11283;SDS011;5698;47.332;11.180;2023-06-10T08:36:00;3.63;;;3.30;;
11283;SDS011;5698;47.332;11.180;2023-06-10T08:38:27;4.20;;;3.10;;
11283;SDS011;5698;47.332;11.180;2023-06-10T08:40:54;3.93;;;3.63;;
11283;SDS011;5698;47.332;11.180;2023-06-10T08:43:27;3.57;;;3.27;;
11283;SDS011;5698;47.332;11.180;2023-06-10T08:46:00;3.67;;;3.23;;
11283;SDS011;5698;47.332;11.180;2023-06-10T08:48:30;3.40;;;3.10;;
11283;SDS011;5698;47.332;11.180;2023-06-10T08:50:57;3.33;;;3.03;;
11283;SDS011;5698;47.332;11.180;2023-06-10T08:53:26;3.73;;;3.43;;
11283;SDS011;5698;47.332;11.180;2023-06-10T08:55:54;4.00;;;3.37;;
11283;SDS011;5698;47.332;11.180;2023-06-10T08:58:27;4.77;;;3.17;;
11283;SDS011;5698;47.332;11.180;2023-06-10T09:00:54;4.80;;;3.13;;
11283;SDS011;5698;47.332;11.180;2023-06-10T09:03:22;3.47;;;3.17;;
11283;SDS011;5698;47.332;11.180;2023-06-10T09:05:51;3.90;;;3.20;;
11283;SDS011;5698;47.332;11.180;2023-06-10T09:08:20;3.80;;;3.00;;
11283;SDS011;5698;47.332;11.180;2023-06-10T09:10:47;3.60;;;3.30;;
11283;SDS011;5698;47.332;11.180;2023-06-10T09:13:14;3.50;;;3.20;;
11283;SDS011;5698;47.332;11.180;2023-06-10T09:15:43;3.37;;;3.07;;
11283;SDS011;5698;47.332;11.180;2023-06-10T09:18:11;3.50;;;3.23;;
11283;SDS011;5698;47.332;11.180;2023-06-10T09:20:38;4.50;;;3.33;;
11283;SDS011;5698;47.332;11.180;2023-06-10T09:23:07;3.07;;;2.87;;
11283;SDS011;5698;47.332;11.180;2023-06-10T09:25:35;4.57;;;2.80;;
11283;SDS011;5698;47.332;11.180;2023-06-10T09:28:03;3.30;;;2.73;;
11283;SDS011;5698;47.332;11.180;2023-06-10T09:30:31;3.17;;;2.87;;
11283;SDS011;5698;47.332;11.180;2023-06-10T09:33:00;5.63;;;3.20;;
11283;SDS011;5698;47.332;11.180;2023-06-10T09:35:28;3.20;;;2.93;;
11283;SDS011;5698;47.332;11.180;2023-06-10T09:37:57;4.00;;;2.77;;
11283;SDS011;5698;47.332;11.180;2023-06-10T09:40:26;2.87;;;2.67;;
11283;SDS011;5698;47.332;11.180;2023-06-10T09:42:54;2.67;;;2.47;;
11283;SDS011;5698;47.332;11.180;2023-06-10T09:45:22;3.00;;;2.80;;
11283;SDS011;5698;47.332;11.180;2023-06-10T09:47:51;3.13;;;2.60;;
11283;SDS011;5698;47.332;11.180;2023-06-10T09:50:19;2.53;;;2.13;;
11283;SDS011;5698;47.332;11.180;2023-06-10T09:52:46;2.37;;;2.17;;
11283;SDS011;5698;47.332;11.180;2023-06-10T09:55:14;3.20;;;2.03;;
11283;SDS011;5698;47.332;11.180;2023-06-10T09:57:42;2.57;;;2.37;;
11283;SDS011;5698;47.332;11.180;2023-06-10T10:00:13;3.07;;;2.30;;
11283;SDS011;5698;47.332;11.180;2023-06-10T10:02:45;2.20;;;2.00;;
11283;SDS011;5698;47.332;11.180;2023-06-10T10:05:13;2.90;;;2.20;;
11283;SDS011;5698;47.332;11.180;2023-06-10T10:07:41;2.47;;;2.13;;
11283;SDS011;5698;47.332;11.180;2023-06-10T10:10:09;2.83;;;2.40;;
11283;SDS011;5698;47.332;11.180;2023-06-10T10:12:37;3.87;;;2.80;;
11283;SDS011;5698;47.332;11.180;2023-06-10T10:15:07;2.97;;;2.60;;
11283;SDS011;5698;47.332;11.180;2023-06-10T10:17:37;2.63;;;2.37;;
11283;SDS011;5698;47.332;11.180;2023-06-10T10:20:08;2.80;;;2.50;;
11283;SDS011;5698;47.332;11.180;2023-06-10T10:22:41;2.83;;;2.40;;
11283;SDS011;5698;47.332;11.180;2023-06-10T10:25:10;3.03;;;2.70;;
11283;SDS011;5698;47.332;11.180;2023-06-10T10:27:41;3.27;;;2.90;;
11283;SDS011;5698;47.332;11.180;2023-06-10T10:30:16;2.20;;;2.10;;
11283;SDS011;5698;47.332;11.180;2023-06-10T10:32:50;2.90;;;2.70;;
11283;SDS011;5698;47.332;11.180;2023-06-10T10:35:23;3.50;;;3.00;;
11283;SDS011;5698;47.332;11.180;2023-06-10T10:37:53;3.73;;;2.67;;
11283;SDS011;5698;47.332;11.180;2023-06-10T10:40:21;3.27;;;2.70;;
11283;SDS011;5698;47.332;11.180;2023-06-10T10:42:49;3.07;;;2.87;;
11283;SDS011;5698;47.332;11.180;2023-06-10T10:45:19;3.40;;;3.10;;
11283;SDS011;5698;47.332;11.180;2023-06-10T10:47:52;3.23;;;3.03;;
11283;SDS011;5698;47.332;11.180;2023-06-10T10:50:22;3.23;;;3.00;;
11283;SDS011;5698;47.332;11.180;2023-06-10T10:52:53;3.30;;;2.97;;
11283;SDS011;5698;47.332;11.180;2023-06-10T10:55:22;3.40;;;3.10;;
11283;SDS011;5698;47.332;11.180;2023-06-10T10:57:56;3.37;;;3.07;;
11283;SDS011;5698;47.332;11.180;2023-06-10T11:00:28;3.33;;;3.03;;
11283;SDS011;5698;47.332;11.180;2023-06-10T11:02:58;3.20;;;2.90;;
11283;SDS011;5698;47.332;11.180;2023-06-10T11:05:37;3.07;;;2.80;;
11283;SDS011;5698;47.332;11.180;2023-06-10T11:08:07;3.70;;;3.20;;
11283;SDS011;5698;47.332;11.180;2023-06-10T11:10:35;2.90;;;2.70;;
11283;SDS011;5698;47.332;11.180;2023-06-10T11:13:06;3.00;;;2.80;;
11283;SDS011;5698;47.332;11.180;2023-06-10T11:15:39;3.73;;;3.43;;
11283;SDS011;5698;47.332;11.180;2023-06-10T11:18:18;5.10;;;3.93;;
11283;SDS011;5698;47.332;11.180;2023-06-10T11:20:57;8.07;;;6.80;;
11283;SDS011;5698;47.332;11.180;2023-06-10T11:26:16;3.80;;;3.50;;
11283;SDS011;5698;47.332;11.180;2023-06-10T11:31:40;8.97;;;7.37;;
11283;SDS011;5698;47.332;11.180;2023-06-10T11:34:08;5.87;;;5.37;;
11283;SDS011;5698;47.332;11.180;2023-06-10T11:36:36;4.67;;;4.23;;
11283;SDS011;5698;47.332;11.180;2023-06-10T11:39:05;3.40;;;3.10;;
11283;SDS011;5698;47.332;11.180;2023-06-10T11:41:33;5.20;;;2.80;;
11283;SDS011;5698;47.332;11.180;2023-06-10T11:44:02;3.10;;;2.83;;
11283;SDS011;5698;47.332;11.180;2023-06-10T11:46:30;2.77;;;2.57;;
11283;SDS011;5698;47.332;11.180;2023-06-10T11:48:59;3.20;;;3.00;;
11283;SDS011;5698;47.332;11.180;2023-06-10T11:51:28;3.23;;;2.93;;
11283;SDS011;5698;47.332;11.180;2023-06-10T11:53:56;3.53;;;3.23;;
11283;SDS011;5698;47.332;11.180;2023-06-10T11:56:23;5.87;;;3.00;;
11283;SDS011;5698;47.332;11.180;2023-06-10T11:58:52;3.47;;;3.17;;
11283;SDS011;5698;47.332;11.180;2023-06-10T12:01:20;4.03;;;2.77;;
11283;SDS011;5698;47.332;11.180;2023-06-10T12:03:50;4.50;;;2.90;;
11283;SDS011;5698;47.332;11.180;2023-06-10T12:06:24;3.40;;;3.17;;
11283;SDS011;5698;47.332;11.180;2023-06-10T12:08:52;3.40;;;3.10;;
11283;SDS011;5698;47.332;11.180;2023-06-10T12:11:20;3.17;;;2.90;;
11283;SDS011;5698;47.332;11.180;2023-06-10T12:13:48;3.47;;;3.23;;
11283;SDS011;5698;47.332;11.180;2023-06-10T12:16:16;5.30;;;3.40;;
11283;SDS011;5698;47.332;11.180;2023-06-10T12:18:44;4.23;;;3.43;;
11283;SDS011;5698;47.332;11.180;2023-06-10T12:21:18;3.57;;;3.10;;
11283;SDS011;5698;47.332;11.180;2023-06-10T12:24:04;3.43;;;3.10;;
11283;SDS011;5698;47.332;11.180;2023-06-10T12:26:36;3.87;;;3.20;;
11283;SDS011;5698;47.332;11.180;2023-06-10T12:29:17;4.03;;;3.63;;
11283;SDS011;5698;47.332;11.180;2023-06-10T12:31:52;3.73;;;2.93;;
11283;SDS011;5698;47.332;11.180;2023-06-10T12:34:20;3.67;;;3.37;;
11283;SDS011;5698;47.332;11.180;2023-06-10T12:36:55;3.80;;;3.50;;
11283;SDS011;5698;47.332;11.180;2023-06-10T12:39:23;3.90;;;3.43;;
11283;SDS011;5698;47.332;11.180;2023-06-10T12:41:50;4.00;;;3.70;;
11283;SDS011;5698;47.332;11.180;2023-06-10T12:44:18;6.17;;;3.93;;
11283;SDS011;5698;47.332;11.180;2023-06-10T12:46:54;3.97;;;3.67;;
11283;SDS011;5698;47.332;11.180;2023-06-10T12:49:21;4.33;;;4.00;;
11283;SDS011;5698;47.332;11.180;2023-06-10T12:51:48;4.23;;;3.83;;
11283;SDS011;5698;47.332;11.180;2023-06-10T12:54:15;4.30;;;3.90;;
11283;SDS011;5698;47.332;11.180;2023-06-10T12:56:43;4.33;;;4.03;;
11283;SDS011;5698;47.332;11.180;2023-06-10T12:59:10;3.90;;;3.60;;
11283;SDS011;5698;47.332;11.180;2023-06-10T13:01:37;4.50;;;4.03;;
11283;SDS011;5698;47.332;11.180;2023-06-10T13:04:05;4.30;;;3.90;;
11283;SDS011;5698;47.332;11.180;2023-06-10T13:06:32;4.43;;;4.03;;
11283;SDS011;5698;47.332;11.180;2023-06-10T13:09:03;4.33;;;3.93;;
11283;SDS011;5698;47.332;11.180;2023-06-10T13:11:32;4.00;;;3.70;;
11283;SDS011;5698;47.332;11.180;2023-06-10T13:14:01;6.13;;;3.93;;
11283;SDS011;5698;47.332;11.180;2023-06-10T13:16:30;4.70;;;4.30;;
11283;SDS011;5698;47.332;11.180;2023-06-10T13:18:57;5.07;;;3.80;;
11283;SDS011;5698;47.332;11.180;2023-06-10T13:21:24;4.30;;;4.00;;
11283;SDS011;5698;47.332;11.180;2023-06-10T13:23:51;4.43;;;3.77;;
11283;SDS011;5698;47.332;11.180;2023-06-10T13:26:18;4.60;;;4.20;;
11283;SDS011;5698;47.332;11.180;2023-06-10T13:28:45;5.80;;;3.93;;
11283;SDS011;5698;47.332;11.180;2023-06-10T13:31:13;4.23;;;3.83;;
11283;SDS011;5698;47.332;11.180;2023-06-10T13:33:40;4.33;;;3.67;;
11283;SDS011;5698;47.332;11.180;2023-06-10T13:36:08;4.17;;;3.87;;
11283;SDS011;5698;47.332;11.180;2023-06-10T13:38:36;4.37;;;4.03;;
11283;SDS011;5698;47.332;11.180;2023-06-10T13:41:03;4.47;;;4.13;;
11283;SDS011;5698;47.332;11.180;2023-06-10T13:43:30;5.83;;;3.63;;
11283;SDS011;5698;47.332;11.180;2023-06-10T13:45:57;4.20;;;3.90;;
11283;SDS011;5698;47.332;11.180;2023-06-10T13:48:26;5.00;;;3.53;;
11283;SDS011;5698;47.332;11.180;2023-06-10T13:50:53;4.50;;;4.10;;
11283;SDS011;5698;47.332;11.180;2023-06-10T13:53:20;4.10;;;3.80;;
11283;SDS011;5698;47.332;11.180;2023-06-10T13:55:47;4.53;;;4.13;;
11283;SDS011;5698;47.332;11.180;2023-06-10T13:58:14;3.87;;;3.57;;
11283;SDS011;5698;47.332;11.180;2023-06-10T14:00:41;3.80;;;3.50;;
11283;SDS011;5698;47.332;11.180;2023-06-10T14:03:08;4.40;;;4.10;;
11283;SDS011;5698;47.332;11.180;2023-06-10T14:05:37;4.10;;;3.80;;
11283;SDS011;5698;47.332;11.180;2023-06-10T14:08:04;4.23;;;3.60;;
11283;SDS011;5698;47.332;11.180;2023-06-10T14:10:31;4.67;;;3.67;;
11283;SDS011;5698;47.332;11.180;2023-06-10T14:12:58;4.67;;;3.40;;
11283;SDS011;5698;47.332;11.180;2023-06-10T14:15:25;3.83;;;3.53;;
11283;SDS011;5698;47.332;11.180;2023-06-10T14:17:52;4.60;;;3.50;;
11283;SDS011;5698;47.332;11.180;2023-06-10T14:20:19;4.07;;;3.67;;
11283;SDS011;5698;47.332;11.180;2023-06-10T14:22:47;4.47;;;4.07;;
11283;SDS011;5698;47.332;11.180;2023-06-10T14:25:14;4.20;;;3.73;;
11283;SDS011;5698;47.332;11.180;2023-06-10T14:27:42;4.00;;;3.60;;
11283;SDS011;5698;47.332;11.180;2023-06-10T14:30:12;3.90;;;3.60;;
11283;SDS011;5698;47.332;11.180;2023-06-10T14:32:39;4.07;;;3.67;;
11283;SDS011;5698;47.332;11.180;2023-06-10T14:35:06;4.20;;;3.90;;
11283;SDS011;5698;47.332;11.180;2023-06-10T14:37:33;3.80;;;3.50;;
11283;SDS011;5698;47.332;11.180;2023-06-10T14:40:02;4.00;;;3.70;;
11283;SDS011;5698;47.332;11.180;2023-06-10T14:42:30;4.10;;;3.80;;
11283;SDS011;5698;47.332;11.180;2023-06-10T14:44:57;7.23;;;3.80;;
11283;SDS011;5698;47.332;11.180;2023-06-10T14:47:25;3.47;;;3.27;;
11283;SDS011;5698;47.332;11.180;2023-06-10T14:49:52;4.57;;;4.13;;
11283;SDS011;5698;47.332;11.180;2023-06-10T14:52:19;3.93;;;3.63;;
11283;SDS011;5698;47.332;11.180;2023-06-10T14:54:46;3.67;;;3.37;;
11283;SDS011;5698;47.332;11.180;2023-06-10T14:57:14;4.20;;;3.90;;
11283;SDS011;5698;47.332;11.180;2023-06-10T14:59:41;4.47;;;3.57;;